sensor_id;sensor_type;location;lat;lon;timestamp;temperature;humidity
5956;DHT22;3004;48.080;11.600;2022-09-13T00:01:32;9.00;99.90
5956;DHT22;3004;48.080;11.600;2022-09-13T00:04:01;8.90;99.90
5956;DHT22;3004;48.080;11.600;2022-09-13T00:06:28;8.80;99.90
5956;DHT22;3004;48.080;11.600;2022-09-13T00:08:56;8.80;99.90
5956;DHT22;3004;48.080;11.600;2022-09-13T00:11:24;8.80;99.90
5956;DHT22;3004;48.080;11.600;2022-09-13T00:13:52;8.80;99.90
5956;DHT22;3004;48.080;11.600;2022-09-13T00:16:35;8.80;99.90
5956;DHT22;3004;48.080;11.600;2022-09-13T00:19:04;8.80;99.90
5956;DHT22;3004;48.080;11.600;2022-09-13T00:21:31;8.80;99.90
5956;DHT22;3004;48.080;11.600;2022-09-13T00:23:58;8.80;99.90
5956;DHT22;3004;48.080;11.600;2022-09-13T00:26:27;8.80;99.90
5956;DHT22;3004;48.080;11.600;2022-09-13T00:28:56;8.80;99.90
5956;DHT22;3004;48.080;11.600;2022-09-13T00:31:25;8.80;99.90
5956;DHT22;3004;48.080;11.600;2022-09-13T00:33:59;8.90;99.90
5956;DHT22;3004;48.080;11.600;2022-09-13T00:36:26;8.90;99.90
5956;DHT22;3004;48.080;11.600;2022-09-13T00:38:58;8.90;99.90
5956;DHT22;3004;48.080;11.600;2022-09-13T00:41:25;8.90;99.90
5956;DHT22;3004;48.080;11.600;2022-09-13T00:43:54;9.00;99.90
5956;DHT22;3004;48.080;11.600;2022-09-13T00:46:31;9.00;99.90
5956;DHT22;3004;48.080;11.600;2022-09-13T00:49:11;9.00;99.90
5956;DHT22;3004;48.080;11.600;2022-09-13T00:51:40;8.80;99.90
5956;DHT22;3004;48.080;11.600;2022-09-13T00:54:09;8.70;99.90
5956;DHT22;3004;48.080;11.600;2022-09-13T00:56:39;8.60;99.90
5956;DHT22;3004;48.080;11.600;2022-09-13T00:59:10;8.60;99.90
5956;DHT22;3004;48.080;11.600;2022-09-13T01:01:48;8.60;99.90
5956;DHT22;3004;48.080;11.600;2022-09-13T01:04:22;8.60;99.90
5956;DHT22;3004;48.080;11.600;2022-09-13T01:06:53;8.50;99.90
5956;DHT22;3004;48.080;11.600;2022-09-13T01:09:23;8.50;99.90
5956;DHT22;3004;48.080;11.600;2022-09-13T01:11:52;8.60;99.90
5956;DHT22;3004;48.080;11.600;2022-09-13T01:14:29;8.50;99.90
5956;DHT22;3004;48.080;11.600;2022-09-13T01:16:57;8.50;99.90
5956;DHT22;3004;48.080;11.600;2022-09-13T01:19:26;8.50;99.90
5956;DHT22;3004;48.080;11.600;2022-09-13T01:22:17;8.50;99.90
5956;DHT22;3004;48.080;11.600;2022-09-13T01:25:25;8.50;99.90
5956;DHT22;3004;48.080;11.600;2022-09-13T01:28:27;8.50;99.90
5956;DHT22;3004;48.080;11.600;2022-09-13T01:31:01;8.40;99.90
5956;DHT22;3004;48.080;11.600;2022-09-13T01:33:49;8.40;99.90
5956;DHT22;3004;48.080;11.600;2022-09-13T01:36:37;8.30;99.90
5956;DHT22;3004;48.080;11.600;2022-09-13T01:39:11;8.30;99.90
5956;DHT22;3004;48.080;11.600;2022-09-13T01:41:49;8.20;99.90
5956;DHT22;3004;48.080;11.600;2022-09-13T01:44:33;8.20;99.90
5956;DHT22;3004;48.080;11.600;2022-09-13T01:47:13;8.10;99.90
5956;DHT22;3004;48.080;11.600;2022-09-13T01:49:46;8.10;99.90
5956;DHT22;3004;48.080;11.600;2022-09-13T01:52:22;8.10;99.90
5956;DHT22;3004;48.080;11.600;2022-09-13T01:54:56;8.10;99.90
5956;DHT22;3004;48.080;11.600;2022-09-13T01:57:30;8.00;99.90
5956;DHT22;3004;48.080;11.600;2022-09-13T02:00:03;8.00;99.90
5956;DHT22;3004;48.080;11.600;2022-09-13T02:02:37;8.00;99.90
5956;DHT22;3004;48.080;11.600;2022-09-13T02:05:11;8.00;99.90
5956;DHT22;3004;48.080;11.600;2022-09-13T02:07:42;7.90;99.90
5956;DHT22;3004;48.080;11.600;2022-09-13T02:10:13;7.90;99.90
5956;DHT22;3004;48.080;11.600;2022-09-13T02:12:43;7.90;99.90
5956;DHT22;3004;48.080;11.600;2022-09-13T02:15:14;7.90;99.90
5956;DHT22;3004;48.080;11.600;2022-09-13T02:17:47;7.90;99.90
5956;DHT22;3004;48.080;11.600;2022-09-13T02:20:19;7.80;99.90
5956;DHT22;3004;48.080;11.600;2022-09-13T02:22:51;7.70;99.90
5956;DHT22;3004;48.080;11.600;2022-09-13T02:25:24;7.70;99.90
5956;DHT22;3004;48.080;11.600;2022-09-13T02:27:55;7.70;99.90
5956;DHT22;3004;48.080;11.600;2022-09-13T02:30:25;7.70;99.90
5956;DHT22;3004;48.080;11.600;2022-09-13T02:32:56;7.70;99.90
5956;DHT22;3004;48.080;11.600;2022-09-13T02:35:30;7.60;99.90
5956;DHT22;3004;48.080;11.600;2022-09-13T02:38:02;7.70;99.90
5956;DHT22;3004;48.080;11.600;2022-09-13T02:40:36;7.60;99.90
5956;DHT22;3004;48.080;11.600;2022-09-13T02:43:09;7.60;99.90
5956;DHT22;3004;48.080;11.600;2022-09-13T02:45:44;7.50;99.90
5956;DHT22;3004;48.080;11.600;2022-09-13T02:48:19;7.50;99.90
5956;DHT22;3004;48.080;11.600;2022-09-13T02:50:58;7.50;99.90
5956;DHT22;3004;48.080;11.600;2022-09-13T02:53:30;7.50;99.90
5956;DHT22;3004;48.080;11.600;2022-09-13T02:56:04;7.60;99.90
5956;DHT22;3004;48.080;11.600;2022-09-13T02:58:41;7.60;99.90
5956;DHT22;3004;48.080;11.600;2022-09-13T03:01:10;7.60;99.90
5956;DHT22;3004;48.080;11.600;2022-09-13T03:03:39;7.60;99.90
5956;DHT22;3004;48.080;11.600;2022-09-13T03:06:06;7.60;99.90
5956;DHT22;3004;48.080;11.600;2022-09-13T03:08:34;7.60;99.90
5956;DHT22;3004;48.080;11.600;2022-09-13T03:11:08;7.60;99.90
5956;DHT22;3004;48.080;11.600;2022-09-13T03:14:07;7.60;99.90
5956;DHT22;3004;48.080;11.600;2022-09-13T03:16:47;7.70;99.90
5956;DHT22;3004;48.080;11.600;2022-09-13T03:19:27;7.70;99.90
5956;DHT22;3004;48.080;11.600;2022-09-13T03:22:10;7.70;99.90
5956;DHT22;3004;48.080;11.600;2022-09-13T03:24:49;7.70;99.90
5956;DHT22;3004;48.080;11.600;2022-09-13T03:27:24;7.70;99.90
5956;DHT22;3004;48.080;11.600;2022-09-13T03:30:00;7.60;99.90
5956;DHT22;3004;48.080;11.600;2022-09-13T03:32:35;7.60;99.90
5956;DHT22;3004;48.080;11.600;2022-09-13T03:35:11;7.50;99.90
5956;DHT22;3004;48.080;11.600;2022-09-13T03:37:43;7.60;99.90
5956;DHT22;3004;48.080;11.600;2022-09-13T03:40:15;7.60;99.90
5956;DHT22;3004;48.080;11.600;2022-09-13T03:42:49;7.50;99.90
5956;DHT22;3004;48.080;11.600;2022-09-13T03:45:21;7.50;99.90
5956;DHT22;3004;48.080;11.600;2022-09-13T03:47:51;7.50;99.90
5956;DHT22;3004;48.080;11.600;2022-09-13T03:50:22;7.50;99.90
5956;DHT22;3004;48.080;11.600;2022-09-13T03:52:56;7.50;99.90
5956;DHT22;3004;48.080;11.600;2022-09-13T03:55:25;7.50;99.90
5956;DHT22;3004;48.080;11.600;2022-09-13T03:57:52;7.40;99.90
5956;DHT22;3004;48.080;11.600;2022-09-13T04:00:19;7.40;99.90
5956;DHT22;3004;48.080;11.600;2022-09-13T04:02:47;7.30;99.90
5956;DHT22;3004;48.080;11.600;2022-09-13T04:05:14;7.30;99.90
5956;DHT22;3004;48.080;11.600;2022-09-13T04:07:43;7.30;99.90
5956;DHT22;3004;48.080;11.600;2022-09-13T04:10:13;7.30;99.90
5956;DHT22;3004;48.080;11.600;2022-09-13T04:12:40;7.30;99.90
5956;DHT22;3004;48.080;11.600;2022-09-13T04:15:08;7.40;99.90
5956;DHT22;3004;48.080;11.600;2022-09-13T04:17:35;7.40;99.90
5956;DHT22;3004;48.080;11.600;2022-09-13T04:20:03;7.40;99.90
5956;DHT22;3004;48.080;11.600;2022-09-13T04:22:33;7.40;99.90
5956;DHT22;3004;48.080;11.600;2022-09-13T04:25:02;7.40;99.90
5956;DHT22;3004;48.080;11.600;2022-09-13T04:27:30;7.40;99.90
5956;DHT22;3004;48.080;11.600;2022-09-13T04:29:57;7.40;99.90
5956;DHT22;3004;48.080;11.600;2022-09-13T04:32:24;7.40;99.90
5956;DHT22;3004;48.080;11.600;2022-09-13T04:34:51;7.40;99.90
5956;DHT22;3004;48.080;11.600;2022-09-13T04:37:19;7.50;99.90
5956;DHT22;3004;48.080;11.600;2022-09-13T04:39:46;7.50;99.90
5956;DHT22;3004;48.080;11.600;2022-09-13T04:42:14;7.50;99.90
5956;DHT22;3004;48.080;11.600;2022-09-13T04:44:43;7.50;99.90
5956;DHT22;3004;48.080;11.600;2022-09-13T04:47:10;7.50;99.90
5956;DHT22;3004;48.080;11.600;2022-09-13T04:49:39;7.50;99.90
5956;DHT22;3004;48.080;11.600;2022-09-13T04:52:06;7.50;99.90
5956;DHT22;3004;48.080;11.600;2022-09-13T04:54:33;7.60;99.90
5956;DHT22;3004;48.080;11.600;2022-09-13T04:57:00;7.60;99.90
5956;DHT22;3004;48.080;11.600;2022-09-13T04:59:28;7.60;99.90
5956;DHT22;3004;48.080;11.600;2022-09-13T05:01:56;7.70;99.90
5956;DHT22;3004;48.080;11.600;2022-09-13T05:04:23;7.70;99.90
5956;DHT22;3004;48.080;11.600;2022-09-13T05:06:50;7.80;99.90
5956;DHT22;3004;48.080;11.600;2022-09-13T05:09:17;7.80;99.90
5956;DHT22;3004;48.080;11.600;2022-09-13T05:11:44;7.90;99.90
5956;DHT22;3004;48.080;11.600;2022-09-13T05:14:11;7.90;99.90
5956;DHT22;3004;48.080;11.600;2022-09-13T05:16:40;7.90;99.90
5956;DHT22;3004;48.080;11.600;2022-09-13T05:19:08;8.00;99.90
5956;DHT22;3004;48.080;11.600;2022-09-13T05:21:35;8.10;99.90
5956;DHT22;3004;48.080;11.600;2022-09-13T05:24:03;8.10;99.90
5956;DHT22;3004;48.080;11.600;2022-09-13T05:26:30;8.20;99.90
5956;DHT22;3004;48.080;11.600;2022-09-13T05:28:57;8.30;99.90
5956;DHT22;3004;48.080;11.600;2022-09-13T05:31:27;8.30;99.90
5956;DHT22;3004;48.080;11.600;2022-09-13T05:33:59;8.30;99.90
5956;DHT22;3004;48.080;11.600;2022-09-13T05:36:26;8.40;99.90
5956;DHT22;3004;48.080;11.600;2022-09-13T05:38:54;8.40;99.90
5956;DHT22;3004;48.080;11.600;2022-09-13T05:41:21;8.50;99.90
5956;DHT22;3004;48.080;11.600;2022-09-13T05:43:48;8.60;99.90
5956;DHT22;3004;48.080;11.600;2022-09-13T05:46:18;8.70;99.90
5956;DHT22;3004;48.080;11.600;2022-09-13T05:48:46;8.80;99.90
5956;DHT22;3004;48.080;11.600;2022-09-13T05:51:16;8.90;99.90
5956;DHT22;3004;48.080;11.600;2022-09-13T05:53:46;9.00;99.90
5956;DHT22;3004;48.080;11.600;2022-09-13T05:56:15;9.10;99.90
5956;DHT22;3004;48.080;11.600;2022-09-13T05:58:44;9.10;99.90
5956;DHT22;3004;48.080;11.600;2022-09-13T06:01:15;9.10;99.90
5956;DHT22;3004;48.080;11.600;2022-09-13T06:03:46;9.20;99.90
5956;DHT22;3004;48.080;11.600;2022-09-13T06:06:16;9.30;99.90
5956;DHT22;3004;48.080;11.600;2022-09-13T06:08:43;9.40;99.90
5956;DHT22;3004;48.080;11.600;2022-09-13T06:11:12;9.40;99.90
5956;DHT22;3004;48.080;11.600;2022-09-13T06:13:40;9.60;99.90
5956;DHT22;3004;48.080;11.600;2022-09-13T06:16:09;9.70;99.90
5956;DHT22;3004;48.080;11.600;2022-09-13T06:18:37;9.80;99.90
5956;DHT22;3004;48.080;11.600;2022-09-13T06:21:09;9.90;99.90
5956;DHT22;3004;48.080;11.600;2022-09-13T06:23:38;10.10;99.90
5956;DHT22;3004;48.080;11.600;2022-09-13T06:26:07;10.20;99.90
5956;DHT22;3004;48.080;11.600;2022-09-13T06:28:35;10.30;99.90
5956;DHT22;3004;48.080;11.600;2022-09-13T06:31:04;10.60;99.90
5956;DHT22;3004;48.080;11.600;2022-09-13T06:33:34;10.80;99.90
5956;DHT22;3004;48.080;11.600;2022-09-13T06:36:04;10.90;99.90
5956;DHT22;3004;48.080;11.600;2022-09-13T06:38:31;11.10;99.90
5956;DHT22;3004;48.080;11.600;2022-09-13T06:41:03;11.20;99.90
5956;DHT22;3004;48.080;11.600;2022-09-13T06:43:31;11.40;99.90
5956;DHT22;3004;48.080;11.600;2022-09-13T06:45:59;11.60;99.90
5956;DHT22;3004;48.080;11.600;2022-09-13T06:48:29;11.80;99.90
5956;DHT22;3004;48.080;11.600;2022-09-13T06:50:58;12.00;99.90
5956;DHT22;3004;48.080;11.600;2022-09-13T06:53:25;12.10;99.90
5956;DHT22;3004;48.080;11.600;2022-09-13T06:56:03;12.20;99.90
5956;DHT22;3004;48.080;11.600;2022-09-13T06:58:32;12.40;99.90
5956;DHT22;3004;48.080;11.600;2022-09-13T07:01:10;12.60;99.90
5956;DHT22;3004;48.080;11.600;2022-09-13T07:03:40;12.70;99.90
5956;DHT22;3004;48.080;11.600;2022-09-13T07:06:14;12.90;99.90
5956;DHT22;3004;48.080;11.600;2022-09-13T07:08:42;13.10;99.90
5956;DHT22;3004;48.080;11.600;2022-09-13T07:11:12;13.20;99.90
5956;DHT22;3004;48.080;11.600;2022-09-13T07:13:46;13.50;99.90
5956;DHT22;3004;48.080;11.600;2022-09-13T07:16:15;13.60;99.90
5956;DHT22;3004;48.080;11.600;2022-09-13T07:18:42;13.90;99.90
5956;DHT22;3004;48.080;11.600;2022-09-13T07:21:11;14.00;99.90
5956;DHT22;3004;48.080;11.600;2022-09-13T07:23:43;14.20;99.90
5956;DHT22;3004;48.080;11.600;2022-09-13T07:26:12;14.40;99.90
5956;DHT22;3004;48.080;11.600;2022-09-13T07:28:40;14.70;99.90
5956;DHT22;3004;48.080;11.600;2022-09-13T07:31:13;15.00;99.90
5956;DHT22;3004;48.080;11.600;2022-09-13T07:33:53;15.50;99.90
5956;DHT22;3004;48.080;11.600;2022-09-13T07:36:34;15.70;99.90
5956;DHT22;3004;48.080;11.600;2022-09-13T07:39:04;15.90;99.90
5956;DHT22;3004;48.080;11.600;2022-09-13T07:41:34;16.00;99.90
5956;DHT22;3004;48.080;11.600;2022-09-13T07:44:02;16.40;99.90
5956;DHT22;3004;48.080;11.600;2022-09-13T07:46:43;16.70;99.90
5956;DHT22;3004;48.080;11.600;2022-09-13T07:49:11;16.80;99.90
5956;DHT22;3004;48.080;11.600;2022-09-13T07:51:48;17.10;99.90
5956;DHT22;3004;48.080;11.600;2022-09-13T07:54:20;17.20;99.90
5956;DHT22;3004;48.080;11.600;2022-09-13T07:57:04;17.10;99.90
5956;DHT22;3004;48.080;11.600;2022-09-13T07:59:36;17.10;99.90
5956;DHT22;3004;48.080;11.600;2022-09-13T08:02:03;17.20;99.90
5956;DHT22;3004;48.080;11.600;2022-09-13T08:04:30;17.20;99.90
5956;DHT22;3004;48.080;11.600;2022-09-13T08:06:57;17.70;99.90
5956;DHT22;3004;48.080;11.600;2022-09-13T08:09:26;17.90;99.90
5956;DHT22;3004;48.080;11.600;2022-09-13T08:11:53;17.70;99.90
5956;DHT22;3004;48.080;11.600;2022-09-13T08:14:22;17.80;99.90
5956;DHT22;3004;48.080;11.600;2022-09-13T08:16:49;17.90;99.90
5956;DHT22;3004;48.080;11.600;2022-09-13T08:19:17;18.30;99.90
5956;DHT22;3004;48.080;11.600;2022-09-13T08:21:45;18.40;99.90
5956;DHT22;3004;48.080;11.600;2022-09-13T08:24:15;18.40;99.90
5956;DHT22;3004;48.080;11.600;2022-09-13T08:26:43;18.40;99.90
5956;DHT22;3004;48.080;11.600;2022-09-13T08:29:12;18.50;99.90
5956;DHT22;3004;48.080;11.600;2022-09-13T08:31:41;18.60;99.90
5956;DHT22;3004;48.080;11.600;2022-09-13T08:34:10;18.50;99.90
5956;DHT22;3004;48.080;11.600;2022-09-13T08:36:39;18.40;99.90
5956;DHT22;3004;48.080;11.600;2022-09-13T08:39:07;18.40;99.90
5956;DHT22;3004;48.080;11.600;2022-09-13T08:44:28;18.30;99.90
5956;DHT22;3004;48.080;11.600;2022-09-13T08:47:06;18.30;99.90
5956;DHT22;3004;48.080;11.600;2022-09-13T08:49:39;18.30;99.90
5956;DHT22;3004;48.080;11.600;2022-09-13T08:52:16;18.40;99.90
5956;DHT22;3004;48.080;11.600;2022-09-13T08:54:46;18.50;99.90
5956;DHT22;3004;48.080;11.600;2022-09-13T08:57:16;18.60;99.90
5956;DHT22;3004;48.080;11.600;2022-09-13T08:59:53;19.00;99.90
5956;DHT22;3004;48.080;11.600;2022-09-13T09:02:53;18.90;99.90
5956;DHT22;3004;48.080;11.600;2022-09-13T09:05:23;19.10;99.90
5956;DHT22;3004;48.080;11.600;2022-09-13T09:07:55;19.10;99.90
5956;DHT22;3004;48.080;11.600;2022-09-13T09:10:28;19.20;99.90
5956;DHT22;3004;48.080;11.600;2022-09-13T09:12:58;19.40;99.90
5956;DHT22;3004;48.080;11.600;2022-09-13T09:15:29;19.60;99.90
5956;DHT22;3004;48.080;11.600;2022-09-13T09:18:08;19.70;99.90
5956;DHT22;3004;48.080;11.600;2022-09-13T09:20:39;19.90;99.90
5956;DHT22;3004;48.080;11.600;2022-09-13T09:23:12;19.90;99.90
5956;DHT22;3004;48.080;11.600;2022-09-13T09:25:40;20.00;99.90
5956;DHT22;3004;48.080;11.600;2022-09-13T09:28:12;20.10;99.90
5956;DHT22;3004;48.080;11.600;2022-09-13T09:30:45;20.30;99.90
5956;DHT22;3004;48.080;11.600;2022-09-13T09:33:37;20.30;99.90
5956;DHT22;3004;48.080;11.600;2022-09-13T09:36:19;20.40;99.90
5956;DHT22;3004;48.080;11.600;2022-09-13T09:38:49;20.60;99.90
5956;DHT22;3004;48.080;11.600;2022-09-13T09:41:24;20.80;99.90
5956;DHT22;3004;48.080;11.600;2022-09-13T09:44:00;20.90;99.90
5956;DHT22;3004;48.080;11.600;2022-09-13T09:46:32;21.00;99.90
5956;DHT22;3004;48.080;11.600;2022-09-13T09:49:18;21.10;99.90
5956;DHT22;3004;48.080;11.600;2022-09-13T09:52:13;21.20;99.90
5956;DHT22;3004;48.080;11.600;2022-09-13T09:54:42;21.20;99.90
5956;DHT22;3004;48.080;11.600;2022-09-13T09:57:09;21.30;99.90
5956;DHT22;3004;48.080;11.600;2022-09-13T09:59:36;21.60;99.90
5956;DHT22;3004;48.080;11.600;2022-09-13T10:02:14;21.60;99.90
5956;DHT22;3004;48.080;11.600;2022-09-13T10:04:53;21.70;99.90
5956;DHT22;3004;48.080;11.600;2022-09-13T10:07:28;21.70;99.90
5956;DHT22;3004;48.080;11.600;2022-09-13T10:10:02;21.60;99.90
5956;DHT22;3004;48.080;11.600;2022-09-13T10:12:33;21.90;99.90
5956;DHT22;3004;48.080;11.600;2022-09-13T10:15:13;21.80;99.90
5956;DHT22;3004;48.080;11.600;2022-09-13T10:17:42;21.70;99.90
5956;DHT22;3004;48.080;11.600;2022-09-13T10:20:22;21.70;99.90
5956;DHT22;3004;48.080;11.600;2022-09-13T10:23:09;21.80;99.90
5956;DHT22;3004;48.080;11.600;2022-09-13T10:25:38;22.00;99.90
5956;DHT22;3004;48.080;11.600;2022-09-13T10:28:10;22.00;99.90
5956;DHT22;3004;48.080;11.600;2022-09-13T10:30:46;22.10;99.90
5956;DHT22;3004;48.080;11.600;2022-09-13T10:33:26;22.00;99.90
5956;DHT22;3004;48.080;11.600;2022-09-13T10:36:14;21.80;99.90
5956;DHT22;3004;48.080;11.600;2022-09-13T10:38:50;21.90;99.90
5956;DHT22;3004;48.080;11.600;2022-09-13T10:41:22;22.00;99.90
5956;DHT22;3004;48.080;11.600;2022-09-13T10:43:56;22.10;99.90
5956;DHT22;3004;48.080;11.600;2022-09-13T10:46:23;22.20;99.90
5956;DHT22;3004;48.080;11.600;2022-09-13T10:48:51;22.20;99.90
5956;DHT22;3004;48.080;11.600;2022-09-13T10:51:37;22.20;99.90
5956;DHT22;3004;48.080;11.600;2022-09-13T10:54:11;22.40;99.90
5956;DHT22;3004;48.080;11.600;2022-09-13T10:56:41;22.40;99.90
5956;DHT22;3004;48.080;11.600;2022-09-13T10:59:18;22.50;99.90
5956;DHT22;3004;48.080;11.600;2022-09-13T11:02:01;22.60;99.90
5956;DHT22;3004;48.080;11.600;2022-09-13T11:05:16;22.70;99.90
5956;DHT22;3004;48.080;11.600;2022-09-13T11:08:31;22.80;99.90
5956;DHT22;3004;48.080;11.600;2022-09-13T11:11:09;23.30;99.90
5956;DHT22;3004;48.080;11.600;2022-09-13T11:13:53;23.30;99.90
5956;DHT22;3004;48.080;11.600;2022-09-13T11:16:45;23.30;99.90
5956;DHT22;3004;48.080;11.600;2022-09-13T11:19:54;23.40;99.90
5956;DHT22;3004;48.080;11.600;2022-09-13T11:22:52;23.60;99.90
5956;DHT22;3004;48.080;11.600;2022-09-13T11:25:47;23.80;99.90
5956;DHT22;3004;48.080;11.600;2022-09-13T11:28:24;23.80;99.90
5956;DHT22;3004;48.080;11.600;2022-09-13T11:31:27;23.80;99.90
5956;DHT22;3004;48.080;11.600;2022-09-13T11:34:26;23.80;99.50
5956;DHT22;3004;48.080;11.600;2022-09-13T11:37:15;23.80;99.90
5956;DHT22;3004;48.080;11.600;2022-09-13T11:39:52;23.80;98.10
5956;DHT22;3004;48.080;11.600;2022-09-13T11:42:37;23.90;99.90
5956;DHT22;3004;48.080;11.600;2022-09-13T11:45:28;23.90;99.90
5956;DHT22;3004;48.080;11.600;2022-09-13T11:48:09;24.00;99.90
5956;DHT22;3004;48.080;11.600;2022-09-13T11:50:46;24.00;99.90
5956;DHT22;3004;48.080;11.600;2022-09-13T11:53:36;24.00;99.10
5956;DHT22;3004;48.080;11.600;2022-09-13T11:56:06;23.90;99.90
5956;DHT22;3004;48.080;11.600;2022-09-13T11:58:43;23.90;98.90
5956;DHT22;3004;48.080;11.600;2022-09-13T12:01:16;23.70;99.90
5956;DHT22;3004;48.080;11.600;2022-09-13T12:03:50;23.60;99.80
5956;DHT22;3004;48.080;11.600;2022-09-13T12:06:24;23.70;98.30
5956;DHT22;3004;48.080;11.600;2022-09-13T12:08:57;23.70;97.90
5956;DHT22;3004;48.080;11.600;2022-09-13T12:11:31;23.80;98.50
5956;DHT22;3004;48.080;11.600;2022-09-13T12:14:03;23.80;97.60
5956;DHT22;3004;48.080;11.600;2022-09-13T12:16:35;23.80;99.60
5956;DHT22;3004;48.080;11.600;2022-09-13T12:19:06;23.70;96.70
5956;DHT22;3004;48.080;11.600;2022-09-13T12:21:42;23.60;99.90
5956;DHT22;3004;48.080;11.600;2022-09-13T12:24:17;23.80;97.80
5956;DHT22;3004;48.080;11.600;2022-09-13T12:26:51;23.90;97.90
5956;DHT22;3004;48.080;11.600;2022-09-13T12:29:26;23.90;99.90
5956;DHT22;3004;48.080;11.600;2022-09-13T12:32:03;24.10;99.50
5956;DHT22;3004;48.080;11.600;2022-09-13T12:34:34;24.40;99.50
5956;DHT22;3004;48.080;11.600;2022-09-13T12:37:15;24.60;95.20
5956;DHT22;3004;48.080;11.600;2022-09-13T12:43:14;24.70;96.30
5956;DHT22;3004;48.080;11.600;2022-09-13T12:46:12;24.90;94.10
5956;DHT22;3004;48.080;11.600;2022-09-13T12:48:56;24.90;91.80
5956;DHT22;3004;48.080;11.600;2022-09-13T12:51:36;25.10;91.80
5956;DHT22;3004;48.080;11.600;2022-09-13T12:54:51;25.10;92.80
5956;DHT22;3004;48.080;11.600;2022-09-13T12:57:35;25.20;95.00
5956;DHT22;3004;48.080;11.600;2022-09-13T13:00:19;25.40;94.90
5956;DHT22;3004;48.080;11.600;2022-09-13T13:03:02;25.40;93.10
5956;DHT22;3004;48.080;11.600;2022-09-13T13:05:38;25.10;93.20
5956;DHT22;3004;48.080;11.600;2022-09-13T13:08:24;24.90;94.40
5956;DHT22;3004;48.080;11.600;2022-09-13T13:11:01;24.70;93.00
5956;DHT22;3004;48.080;11.600;2022-09-13T13:13:33;25.00;92.90
5956;DHT22;3004;48.080;11.600;2022-09-13T13:18:57;25.70;91.00
5956;DHT22;3004;48.080;11.600;2022-09-13T13:21:39;25.70;90.40
5956;DHT22;3004;48.080;11.600;2022-09-13T13:24:45;25.90;90.70
5956;DHT22;3004;48.080;11.600;2022-09-13T13:27:40;25.80;90.00
5956;DHT22;3004;48.080;11.600;2022-09-13T13:30:40;26.00;91.40
5956;DHT22;3004;48.080;11.600;2022-09-13T13:33:19;25.80;90.70
5956;DHT22;3004;48.080;11.600;2022-09-13T13:35:48;25.90;93.80
5956;DHT22;3004;48.080;11.600;2022-09-13T13:41:42;25.40;92.90
5956;DHT22;3004;48.080;11.600;2022-09-13T13:50:26;25.60;89.50
5956;DHT22;3004;48.080;11.600;2022-09-13T13:53:00;25.40;91.60
5956;DHT22;3004;48.080;11.600;2022-09-13T13:55:43;25.30;91.60
5956;DHT22;3004;48.080;11.600;2022-09-13T13:58:32;25.70;91.70
5956;DHT22;3004;48.080;11.600;2022-09-13T14:01:15;25.50;96.10
5956;DHT22;3004;48.080;11.600;2022-09-13T14:06:54;25.50;94.80
5956;DHT22;3004;48.080;11.600;2022-09-13T14:09:32;25.40;92.40
5956;DHT22;3004;48.080;11.600;2022-09-13T14:12:16;25.20;90.40
5956;DHT22;3004;48.080;11.600;2022-09-13T14:15:02;25.20;90.50
5956;DHT22;3004;48.080;11.600;2022-09-13T14:20:33;25.10;93.70
5956;DHT22;3004;48.080;11.600;2022-09-13T14:23:15;24.80;93.00
5956;DHT22;3004;48.080;11.600;2022-09-13T14:25:44;24.70;95.00
5956;DHT22;3004;48.080;11.600;2022-09-13T14:28:26;24.50;93.30
5956;DHT22;3004;48.080;11.600;2022-09-13T14:30:55;24.40;92.10
5956;DHT22;3004;48.080;11.600;2022-09-13T14:33:29;24.20;96.40
5956;DHT22;3004;48.080;11.600;2022-09-13T14:36:00;24.10;96.40
5956;DHT22;3004;48.080;11.600;2022-09-13T14:38:30;24.10;96.20
5956;DHT22;3004;48.080;11.600;2022-09-13T14:41:17;24.20;97.90
5956;DHT22;3004;48.080;11.600;2022-09-13T14:43:49;24.30;94.80
5956;DHT22;3004;48.080;11.600;2022-09-13T14:46:28;24.30;96.20
5956;DHT22;3004;48.080;11.600;2022-09-13T14:49:00;24.30;98.00
5956;DHT22;3004;48.080;11.600;2022-09-13T14:51:40;24.10;97.60
5956;DHT22;3004;48.080;11.600;2022-09-13T14:54:20;24.10;95.00
5956;DHT22;3004;48.080;11.600;2022-09-13T14:57:17;24.10;96.60
5956;DHT22;3004;48.080;11.600;2022-09-13T14:59:52;24.00;98.80
5956;DHT22;3004;48.080;11.600;2022-09-13T15:02:24;23.90;98.50
5956;DHT22;3004;48.080;11.600;2022-09-13T15:04:56;23.90;95.30
5956;DHT22;3004;48.080;11.600;2022-09-13T15:07:28;23.80;99.90
5956;DHT22;3004;48.080;11.600;2022-09-13T15:09:57;23.70;99.90
5956;DHT22;3004;48.080;11.600;2022-09-13T15:12:35;23.50;99.90
5956;DHT22;3004;48.080;11.600;2022-09-13T15:15:24;23.30;99.90
5956;DHT22;3004;48.080;11.600;2022-09-13T15:17:57;23.10;99.90
5956;DHT22;3004;48.080;11.600;2022-09-13T15:20:28;23.00;99.90
5956;DHT22;3004;48.080;11.600;2022-09-13T15:23:09;22.80;99.90
5956;DHT22;3004;48.080;11.600;2022-09-13T15:25:49;22.80;99.90
5956;DHT22;3004;48.080;11.600;2022-09-13T15:28:26;22.70;99.90
5956;DHT22;3004;48.080;11.600;2022-09-13T15:31:18;22.60;99.90
5956;DHT22;3004;48.080;11.600;2022-09-13T15:34:23;22.50;99.90
5956;DHT22;3004;48.080;11.600;2022-09-13T15:37:15;22.40;99.90
5956;DHT22;3004;48.080;11.600;2022-09-13T15:40:18;22.40;99.90
5956;DHT22;3004;48.080;11.600;2022-09-13T15:42:50;22.40;99.90
5956;DHT22;3004;48.080;11.600;2022-09-13T15:45:50;22.40;99.90
5956;DHT22;3004;48.080;11.600;2022-09-13T15:48:37;22.40;99.90
5956;DHT22;3004;48.080;11.600;2022-09-13T15:51:10;22.40;99.90
5956;DHT22;3004;48.080;11.600;2022-09-13T15:53:46;22.30;99.90
5956;DHT22;3004;48.080;11.600;2022-09-13T15:56:30;22.20;99.90
5956;DHT22;3004;48.080;11.600;2022-09-13T15:59:07;22.10;99.90
5956;DHT22;3004;48.080;11.600;2022-09-13T16:01:50;22.10;99.90
5956;DHT22;3004;48.080;11.600;2022-09-13T16:04:22;22.00;99.90
5956;DHT22;3004;48.080;11.600;2022-09-13T16:06:51;22.00;99.90
5956;DHT22;3004;48.080;11.600;2022-09-13T16:09:24;21.90;99.90
5956;DHT22;3004;48.080;11.600;2022-09-13T16:12:15;21.70;99.90
5956;DHT22;3004;48.080;11.600;2022-09-13T16:14:59;21.60;99.90
5956;DHT22;3004;48.080;11.600;2022-09-13T16:17:31;21.60;99.90
5956;DHT22;3004;48.080;11.600;2022-09-13T16:20:17;21.60;99.90
5956;DHT22;3004;48.080;11.600;2022-09-13T16:23:06;21.60;99.90
5956;DHT22;3004;48.080;11.600;2022-09-13T16:25:47;21.50;99.90
5956;DHT22;3004;48.080;11.600;2022-09-13T16:28:22;21.50;99.90
5956;DHT22;3004;48.080;11.600;2022-09-13T16:30:52;21.40;99.90
5956;DHT22;3004;48.080;11.600;2022-09-13T16:33:25;21.40;99.90
5956;DHT22;3004;48.080;11.600;2022-09-13T16:35:52;21.30;99.90
5956;DHT22;3004;48.080;11.600;2022-09-13T16:38:24;21.30;99.90
5956;DHT22;3004;48.080;11.600;2022-09-13T16:40:56;21.30;99.90
5956;DHT22;3004;48.080;11.600;2022-09-13T16:43:45;21.20;99.90
5956;DHT22;3004;48.080;11.600;2022-09-13T16:46:20;21.10;99.90
5956;DHT22;3004;48.080;11.600;2022-09-13T16:48:54;21.00;99.90
5956;DHT22;3004;48.080;11.600;2022-09-13T16:51:23;21.00;99.90
5956;DHT22;3004;48.080;11.600;2022-09-13T16:54:15;21.00;99.90
5956;DHT22;3004;48.080;11.600;2022-09-13T16:56:56;20.90;99.90
5956;DHT22;3004;48.080;11.600;2022-09-13T16:59:29;20.80;99.90
5956;DHT22;3004;48.080;11.600;2022-09-13T17:02:10;20.70;99.90
5956;DHT22;3004;48.080;11.600;2022-09-13T17:04:45;20.60;99.90
5956;DHT22;3004;48.080;11.600;2022-09-13T17:07:24;20.60;99.90